Sainte-Therese, Canada
Current Conditions -  °F | °C
As of 5:00 AM on Tuesday 27 Jan 2015 (Local Time) from CYMX Reporting Station
Broken Clouds Broken Clouds  
Wind Chill: -12°   Ceiling: 21000
Heat Index:   Visibility: 25mi
Dew Point: -6°   Wind: 14mph
Humidity: 61%   Direction: 50°NE
Pressure: 30.09"   Gusts: 25mph
Location:  45.63°N, 73.85°W
Report Text: CYMX 271000Z 05012G22KT 25SM BKN210 M15/M21 A3009 RMK CI7 SLP197
Loading
Personal Weather Stations






























Interactive Weather Map New forecast layout! Learn more

10-Day Weather Forecast

Advertisements
Track Severe Weather on mobile